Time;durP1;ratioP1;P1;durP2;ratioP2;P2;SDS_P1;SDS_P2;PMS_P1;PMS_P2;Temp;Humidity;BMP_temperature;BMP_pressure;BME280_temperature;BME280_humidity;BME280_pressure;Samples;Min_cycle;Max_cycle;Signal;HPM_P1;HPM_P2
2022/12/14 06:08:57;;;;;;;28.42;18.48;;;;;;;-6.13;82.18;100007.25;5026465;28;20059;-64
2022/12/14 06:29:31;;;;;;;27.30;18.65;;;;;;;-6.14;82.28;100003.84;5006350;28;20055;-61
2022/12/14 06:49:13;;;;;;;27.25;17.58;;;;;;;-6.18;82.23;99986.78;5005727;28;20084;-62
2022/12/14 06:52:06;;;;;;;27.23;18.05;;;;;;;-6.17;82.05;99985.06;5023002;28;20046;-63
2022/12/14 06:54:42;;;;;;;29.95;20.05;;;;;;;-6.17;82.58;99993.63;5009787;28;20060;-63
2022/12/14 06:57:09;;;;;;;27.23;18.70;;;;;;;-6.16;82.52;99990.19;5012642;28;20469;-61
2022/12/14 06:59:37;;;;;;;29.58;19.77;;;;;;;-6.13;82.27;99979.06;5004558;28;20481;-61
2022/12/14 07:02:04;;;;;;;26.00;18.30;;;;;;;-6.13;82.12;99990.19;5016882;28;20055;-64
2022/12/14 07:04:31;;;;;;;27.52;19.08;;;;;;;-6.13;82.04;99986.75;5056639;28;20077;-63
2022/12/14 07:06:58;;;;;;;30.55;19.25;;;;;;;-6.13;81.75;99986.75;5027289;28;20092;-64
2022/12/14 07:09:26;;;;;;;27.90;19.25;;;;;;;-6.15;82.10;99984.22;5043368;28;20079;-64
2022/12/14 07:11:53;;;;;;;29.83;18.42;;;;;;;-6.16;81.98;99982.53;5050800;28;21931;-63
2022/12/14 07:14:20;;;;;;;30.52;20.90;;;;;;;-6.22;82.02;99977.38;5041386;28;20057;-62
2022/12/14 07:16:48;;;;;;;28.88;19.17;;;;;;;-6.27;82.33;99966.28;5051629;28;20132;-62
2022/12/14 07:19:16;;;;;;;30.15;18.85;;;;;;;-6.21;82.58;99971.44;5041880;28;20045;-63
2022/12/14 07:21:43;;;;;;;26.70;19.67;;;;;;;-6.19;82.09;99966.28;5023401;28;20049;-62
2022/12/14 07:24:10;;;;;;;30.92;20.20;;;;;;;-6.19;82.41;99963.72;5032929;28;20136;-62
2022/12/14 07:26:37;;;;;;;32.80;22.90;;;;;;;-6.18;82.35;99965.44;5037708;28;20059;-64
2022/12/14 07:29:05;;;;;;;29.17;21.38;;;;;;;-6.18;82.39;99963.72;5044373;28;20136;-62
2022/12/14 07:31:32;;;;;;;31.00;21.25;;;;;;;-6.16;82.43;99956.06;5044708;28;20164;-62
2022/12/14 07:33:59;;;;;;;37.45;24.08;;;;;;;-6.17;82.51;99967.13;5031760;28;20076;-63
2022/12/14 07:36:28;;;;;;;35.53;24.67;;;;;;;-6.23;82.22;99960.31;5025584;28;20525;-62
2022/12/14 07:38:56;;;;;;;38.05;24.13;;;;;;;-6.21;82.46;99958.63;5034365;28;20404;-63
2022/12/14 07:41:29;;;;;;;31.75;21.98;;;;;;;-6.20;82.73;99949.22;5042911;28;20075;-63
2022/12/14 07:43:58;;;;;;;30.35;20.75;;;;;;;-6.16;82.63;99953.50;5043025;28;20053;-64
2022/12/14 07:46:28;;;;;;;29.67;21.38;;;;;;;-6.12;82.28;99952.63;5044320;28;20139;-62
2022/12/14 07:48:56;;;;;;;31.75;21.00;;;;;;;-6.10;82.77;99945.78;5050078;28;20045;-63
2022/12/14 07:51:32;;;;;;;29.73;20.10;;;;;;;-6.06;82.06;99951.75;5047535;28;20589;-62
2022/12/14 07:54:00;;;;;;;27.25;18.88;;;;;;;-6.05;82.17;99948.31;5008797;28;20489;-61
2022/12/14 07:56:31;;;;;;;27.30;18.95;;;;;;;-6.01;82.15;99948.31;5015447;28;20141;-62
2022/12/14 07:58:59;;;;;;;28.25;19.60;;;;;;;-5.99;82.06;99943.19;5043375;28;20096;-63
2022/12/14 08:01:32;;;;;;;28.55;18.25;;;;;;;-5.98;81.73;99947.47;5027353;28;20063;-64
2022/12/14 08:04:04;;;;;;;28.27;19.02;;;;;;;-5.95;81.80;99947.44;5031351;28;20064;-61
2022/12/14 08:06:32;;;;;;;27.88;19.73;;;;;;;-5.96;81.99;99951.72;5044933;28;20049;-61
2022/12/14 08:09:00;;;;;;;26.50;18.77;;;;;;;-5.97;82.08;99960.25;5043684;28;20481;-63
2022/12/14 08:11:27;;;;;;;27.40;17.98;;;;;;;-5.96;81.77;99945.75;5042731;28;20057;-62
2022/12/14 08:13:59;;;;;;;28.30;18.85;;;;;;;-5.94;82.11;99939.75;5043756;28;20060;-63
2022/12/14 08:16:27;;;;;;;26.08;17.35;;;;;;;-5.91;81.38;99941.41;5035806;28;20033;-61
2022/12/14 08:18:57;;;;;;;26.42;18.50;;;;;;;-5.87;81.45;99938.84;5054960;28;20125;-64
2022/12/14 08:21:26;;;;;;;28.48;18.35;;;;;;;-5.83;81.40;99947.38;5028782;28;20145;-63
2022/12/14 08:23:54;;;;;;;28.42;19.25;;;;;;;-5.81;81.47;99945.66;5054720;28;20073;-63
2022/12/14 08:26:23;;;;;;;26.77;17.80;;;;;;;-5.79;81.64;99946.50;5056335;28;20113;-64
2022/12/14 08:28:56;;;;;;;28.55;19.48;;;;;;;-5.75;81.75;99947.34;5047379;28;20117;-64
2022/12/14 08:31:25;;;;;;;31.17;18.98;;;;;;;-5.71;81.02;99937.09;5048545;28;20621;-63
2022/12/14 08:33:52;;;;;;;25.98;19.10;;;;;;;-5.83;81.52;99941.41;5042573;28;20054;-63
2022/12/14 08:36:27;;;;;;;26.20;18.25;;;;;;;-5.80;82.03;99936.28;5001603;28;20140;-63
2022/12/14 08:39:00;;;;;;;29.73;18.48;;;;;;;-5.72;81.96;99932.81;5042632;28;20057;-62
2022/12/14 08:41:28;;;;;;;26.45;17.88;;;;;;;-5.67;81.74;99932.81;5049236;28;20061;-63
2022/12/14 08:43:57;;;;;;;27.85;17.88;;;;;;;-5.65;81.08;99929.34;5060444;28;20053;-63
2022/12/14 08:46:26;;;;;;;27.38;19.35;;;;;;;-5.56;81.34;99927.63;5046723;28;20052;-63
2022/12/14 08:48:54;;;;;;;25.95;17.95;;;;;;;-5.50;81.34;99928.41;5053774;28;20644;-64
2022/12/14 08:51:22;;;;;;;27.58;18.65;;;;;;;-5.42;81.00;99923.25;5041732;28;20140;-64
2022/12/14 08:53:50;;;;;;;28.60;19.70;;;;;;;-5.38;81.49;99920.69;5047770;28;20061;-63
2022/12/14 08:56:20;;;;;;;27.52;19.38;;;;;;;-5.30;81.14;99912.94;5040965;28;20059;-63
2022/12/14 08:58:47;;;;;;;25.90;18.58;;;;;;;-5.24;80.63;99920.59;5042478;28;20063;-64
2022/12/14 09:01:18;;;;;;;25.33;17.85;;;;;;;-5.18;80.19;99914.56;5037878;28;20152;-64
2022/12/14 09:03:46;;;;;;;26.77;18.23;;;;;;;-5.16;80.44;99910.28;5036703;28;20675;-64
2022/12/14 09:06:16;;;;;;;24.92;16.85;;;;;;;-5.11;80.22;99911.94;5047368;28;20124;-65
2022/12/14 09:08:43;;;;;;;26.90;18.52;;;;;;;-5.10;80.19;99913.66;5016006;28;20481;-65
2022/12/14 09:11:12;;;;;;;29.88;18.10;;;;;;;-5.06;80.07;99911.91;5039336;28;20091;-66
2022/12/14 09:13:40;;;;;;;28.48;17.58;;;;;;;-5.02;80.40;99913.59;5044614;28;20366;-65
2022/12/14 09:16:16;;;;;;;24.88;17.65;;;;;;;-4.95;79.84;99917.00;5046278;28;20509;-65
2022/12/14 09:18:46;;;;;;;32.08;18.77;;;;;;;-4.91;79.65;99909.25;5040684;28;20140;-63
2022/12/14 09:21:14;;;;;;;25.35;16.85;;;;;;;-4.88;79.91;99908.38;5031508;28;20071;-65
2022/12/14 09:23:42;;;;;;;23.67;16.50;;;;;;;-4.84;79.81;99910.91;5045371;28;20116;-63
2022/12/14 09:26:17;;;;;;;26.73;18.33;;;;;;;-4.81;80.10;99910.03;5023541;28;20052;-65
2022/12/14 09:28:50;;;;;;;26.58;18.08;;;;;;;-4.78;80.14;99902.28;5024681;28;20057;-66
2022/12/14 09:31:20;;;;;;;25.30;16.75;;;;;;;-4.75;80.21;99898.84;5045174;28;20056;-65
2022/12/14 09:33:47;;;;;;;28.08;17.85;;;;;;;-4.72;80.10;99897.13;5031120;28;20116;-65
2022/12/14 09:36:22;;;;;;;24.27;17.25;;;;;;;-4.66;80.42;99891.06;5039578;28;20061;-64
2022/12/14 09:38:49;;;;;;;32.78;18.67;;;;;;;-4.61;79.98;99887.59;5048740;28;20091;-65
2022/12/14 09:41:33;;;;;;;28.33;17.60;;;;;;;-4.59;80.07;99887.59;5030926;28;20494;-64
2022/12/14 09:44:07;;;;;;;27.10;17.80;;;;;;;-4.53;80.41;99878.97;5043715;28;20045;-64
2022/12/14 09:46:41;;;;;;;28.95;19.13;;;;;;;-4.46;79.90;99873.75;5042223;28;20057;-63
2022/12/14 09:49:37;;;;;;;32.17;18.33;;;;;;;-4.37;79.65;99878.81;5042387;28;20051;-64
2022/12/14 09:52:06;;;;;;;27.53;17.93;;;;;;;-4.30;79.80;99871.88;5047901;28;20095;-64
2022/12/14 09:54:37;;;;;;;27.50;16.83;;;;;;;-4.21;78.93;99866.63;5020373;28;20057;-65
2022/12/14 09:57:25;;;;;;;30.92;17.65;;;;;;;-4.23;78.76;99867.50;5028971;28;20075;-63
2022/12/14 09:59:53;;;;;;;27.08;17.65;;;;;;;-4.18;79.47;99864.03;5040176;28;20207;-64
2022/12/14 10:02:30;;;;;;;26.75;16.73;;;;;;;-4.08;79.17;99859.66;5024270;28;20096;-65
2022/12/14 10:05:20;;;;;;;26.40;17.02;;;;;;;-4.00;79.09;99860.41;5029427;28;20054;-64
2022/12/14 10:08:01;;;;;;;25.70;15.45;;;;;;;-3.95;79.55;99861.19;5025206;28;20061;-64
2022/12/14 10:11:07;;;;;;;24.63;16.25;;;;;;;-3.88;78.81;99854.25;5008856;28;20080;-65
2022/12/14 10:13:54;;;;;;;28.17;18.55;;;;;;;-3.80;78.97;99849.03;4996701;28;20075;-65
2022/12/14 10:16:30;;;;;;;25.63;16.65;;;;;;;-3.71;78.77;99836.03;5012046;28;20140;-64
2022/12/14 10:19:00;;;;;;;29.33;16.23;;;;;;;-3.64;79.43;99837.66;5031970;28;20052;-63
2022/12/14 10:21:41;;;;;;;25.88;17.50;;;;;;;-3.63;78.52;99827.34;5030617;28;20063;-65
2022/12/14 10:24:14;;;;;;;28.17;17.83;;;;;;;-3.53;78.78;99822.06;5025224;28;20059;-63
2022/12/14 10:26:45;;;;;;;22.38;15.40;;;;;;;-3.44;78.67;99829.66;5019348;28;20064;-65
2022/12/14 10:29:15;;;;;;;28.27;17.70;;;;;;;-3.40;78.41;99826.16;5021296;28;21137;-65
2022/12/14 10:31:57;;;;;;;27.30;17.08;;;;;;;-3.29;78.48;99820.84;5018309;28;20135;-64
2022/12/14 10:34:28;;;;;;;28.85;16.70;;;;;;;-3.24;78.28;99825.06;5027915;28;20052;-65
2022/12/14 10:37:05;;;;;;;25.77;17.27;;;;;;;-3.16;77.89;99827.50;5042097;28;20539;-65
2022/12/14 10:39:35;;;;;;;28.13;16.58;;;;;;;-3.12;77.46;99813.72;5036480;28;20053;-64
2022/12/14 10:42:30;;;;;;;26.90;16.17;;;;;;;-3.07;77.40;99817.06;5034971;28;20331;-65
2022/12/14 10:45:05;;;;;;;25.55;16.95;;;;;;;-3.02;77.78;99809.25;5043623;28;20045;-65
2022/12/14 10:48:10;;;;;;;24.65;16.38;;;;;;;-3.00;77.32;99810.94;5038970;28;20064;-65
2022/12/14 10:50:55;;;;;;;25.47;16.73;;;;;;;-2.95;77.36;99808.28;5043778;28;20132;-65
2022/12/14 10:53:29;;;;;;;26.63;16.25;;;;;;;-2.96;77.07;99809.16;5037444;28;20136;-65
2022/12/14 10:56:07;;;;;;;27.48;17.63;;;;;;;-2.94;76.97;99810.81;5018470;28;20132;-64
2022/12/14 10:58:34;;;;;;;27.48;17.60;;;;;;;-2.86;76.99;99808.13;5040698;28;20053;-65
2022/12/14 11:01:02;;;;;;;27.17;16.52;;;;;;;-2.80;76.92;99805.44;5028254;28;20057;-64
2022/12/14 11:03:29;;;;;;;24.73;15.27;;;;;;;-2.70;76.55;99804.41;5034450;28;20502;-65
2022/12/14 11:05:56;;;;;;;25.92;15.98;;;;;;;-2.63;76.36;99795.69;5010908;28;20053;-65
2022/12/14 11:08:46;;;;;;;24.45;15.02;;;;;;;-2.62;76.90;99789.63;5029286;28;20068;-65
2022/12/14 11:11:24;;;;;;;24.98;15.27;;;;;;;-2.49;77.01;99779.09;5027256;28;20125;-65
2022/12/14 11:13:54;;;;;;;27.92;16.83;;;;;;;-2.37;77.05;99777.16;5025741;28;20045;-64
2022/12/14 11:16:33;;;;;;;23.67;15.98;;;;;;;-2.16;77.05;99765.56;5017535;28;20099;-65
2022/12/14 11:19:05;;;;;;;26.85;16.88;;;;;;;-1.92;76.35;99763.34;5036011;28;20059;-65
2022/12/14 11:21:35;;;;;;;26.95;16.85;;;;;;;-1.73;75.92;99758.59;5037833;28;20088;-65
2022/12/14 11:24:02;;;;;;;29.60;16.70;;;;;;;-1.68;75.19;99757.59;5038016;28;20144;-62
2022/12/14 11:26:36;;;;;;;24.10;15.43;;;;;;;-1.47;74.75;99760.59;5038637;28;20053;-65
2022/12/14 11:29:25;;;;;;;22.63;15.02;;;;;;;-1.35;74.42;99748.25;5036057;28;20462;-63
2022/12/14 11:31:52;;;;;;;26.10;15.90;;;;;;;-1.34;73.53;99746.50;5029346;28;20104;-65
2022/12/14 11:34:22;;;;;;;24.83;14.40;;;;;;;-1.20;72.94;99746.16;5035636;28;20111;-65
2022/12/14 11:36:49;;;;;;;25.77;15.40;;;;;;;-1.02;73.17;99750.88;5016904;28;20058;-65
2022/12/14 11:39:21;;;;;;;28.40;15.95;;;;;;;-0.86;72.02;99746.13;5031515;28;20057;-64
2022/12/14 11:41:57;;;;;;;25.85;15.73;;;;;;;-0.87;71.92;99750.44;5037002;28;20053;-65
2022/12/14 11:44:26;;;;;;;26.52;15.63;;;;;;;-0.86;71.82;99757.31;5041188;28;20051;-64
2022/12/14 11:47:01;;;;;;;28.58;14.75;;;;;;;-0.92;71.56;99761.81;5039643;28;20067;-64
2022/12/14 11:49:34;;;;;;;25.65;14.20;;;;;;;-1.00;71.65;99751.66;5036210;28;20050;-65
2022/12/14 11:52:19;;;;;;;23.50;13.48;;;;;;;-1.05;71.92;99749.19;5011190;28;20048;-64
2022/12/14 11:54:52;;;;;;;22.23;14.85;;;;;;;-1.07;71.67;99750.97;5030328;28;20103;-65
2022/12/14 11:57:23;;;;;;;22.70;14.73;;;;;;;-1.08;72.62;99748.41;5050585;28;20140;-65
2022/12/14 11:59:53;;;;;;;20.40;13.80;;;;;;;-0.97;72.27;99738.66;5036917;28;20065;-65
2022/12/14 12:02:29;;;;;;;22.42;14.52;;;;;;;-0.90;71.60;99739.34;5026714;28;20092;-64
2022/12/14 12:05:19;;;;;;;22.50;14.45;;;;;;;-0.87;72.14;99745.28;5021487;28;20124;-64
2022/12/14 12:07:49;;;;;;;19.98;13.38;;;;;;;-0.82;72.04;99740.00;5032428;28;20067;-65
2022/12/14 12:10:19;;;;;;;20.42;13.68;;;;;;;-0.64;71.93;99743.81;5053180;23;20067;-62
2022/12/14 12:12:48;;;;;;;20.17;13.35;;;;;;;-0.45;71.15;99739.84;5026099;28;20503;-62
2022/12/14 12:15:35;;;;;;;20.95;13.68;;;;;;;-0.39;69.82;99736.25;5029328;28;20504;-62
2022/12/14 12:18:43;;;;;;;22.20;13.98;;;;;;;-0.42;70.57;99732.00;5041383;28;20131;-62
2022/12/14 12:21:28;;;;;;;24.02;14.23;;;;;;;-0.37;70.29;99727.53;5032027;28;20057;-61
2022/12/14 12:24:04;;;;;;;22.17;14.85;;;;;;;-0.34;70.52;99732.63;5034335;28;20049;-61
2022/12/14 12:26:33;;;;;;;20.63;14.55;;;;;;;-0.33;70.06;99733.47;5023859;28;20124;-63
2022/12/14 12:29:14;;;;;;;21.60;13.27;;;;;;;-0.27;70.75;99717.75;5027258;28;20088;-61
2022/12/14 12:31:49;;;;;;;23.45;14.63;;;;;;;0.08;70.47;99715.88;5029482;28;20145;-62
2022/12/14 12:34:39;;;;;;;24.80;14.57;;;;;;;0.21;69.23;99717.19;5029239;28;20128;-61
2022/12/14 12:37:14;;;;;;;19.08;13.68;;;;;;;0.24;68.45;99712.78;5033380;28;20145;-59
2022/12/14 12:40:01;;;;;;;21.40;13.98;;;;;;;0.22;67.75;99716.28;5032021;28;20060;-61
2022/12/14 12:42:40;;;;;;;24.38;13.73;;;;;;;0.09;67.85;99713.25;5030151;28;20411;-62
2022/12/14 12:45:23;;;;;;;18.45;14.00;;;;;;;-0.10;67.92;99712.09;5050993;28;20057;-63
2022/12/14 12:47:59;;;;;;;20.17;14.10;;;;;;;-0.27;68.61;99717.75;5035224;28;20095;-61
2022/12/14 12:50:34;;;;;;;22.83;14.05;;;;;;;-0.40;69.50;99711.28;5024788;28;20053;-62
2022/12/14 12:53:10;;;;;;;23.13;14.38;;;;;;;-0.50;69.13;99708.09;5029556;28;20068;-61
2022/12/14 12:55:41;;;;;;;25.98;15.20;;;;;;;-0.68;70.81;99712.03;5028523;28;20045;-63
2022/12/14 12:58:18;;;;;;;24.67;15.15;;;;;;;-0.59;70.94;99714.38;5024578;28;20128;-63
2022/12/14 13:00:50;;;;;;;24.80;13.63;;;;;;;-0.26;70.19;99703.97;5038427;28;20048;-65
2022/12/14 13:03:22;;;;;;;23.35;14.45;;;;;;;0.14;68.87;99697.59;5024575;28;20604;-63
2022/12/14 13:05:52;;;;;;;24.00;14.80;;;;;;;0.46;68.13;99709.50;5027834;28;20084;-61
2022/12/14 13:08:25;;;;;;;24.42;15.07;;;;;;;0.73;67.40;99700.00;5026316;28;20058;-61
2022/12/14 13:10:55;;;;;;;21.63;13.80;;;;;;;0.91;67.09;99698.53;5020960;28;20061;-63
2022/12/14 13:13:47;;;;;;;20.23;13.27;;;;;;;1.09;66.02;99695.28;5034040;28;20067;-63
2022/12/14 13:16:34;;;;;;;24.05;13.60;;;;;;;1.23;65.75;99690.47;5040341;28;20527;-63
2022/12/14 13:19:08;;;;;;;;;;;;;;;1.27;64.80;99693.78;5029561;28;20079;-64
2022/12/14 13:21:55;;;;;;;24.55;13.68;;;;;;;1.37;64.75;99694.31;5024633;28;19925;-64
2022/12/14 13:24:31;;;;;;;20.40;13.63;;;;;;;1.22;64.40;99696.56;5027009;28;20062;-63
2022/12/14 13:27:15;;;;;;;20.48;13.23;;;;;;;0.94;65.38;99685.44;5028364;28;20563;-63
2022/12/14 13:30:19;;;;;;;20.35;13.10;;;;;;;0.52;66.23;99686.00;5026730;28;20144;-63
2022/12/14 13:33:12;;;;;;;25.85;14.23;;;;;;;0.32;66.44;99681.47;4987557;28;20446;-63
2022/12/14 13:35:51;;;;;;;22.33;13.18;;;;;;;0.13;67.35;99681.19;5024838;28;20046;-60
2022/12/14 13:38:36;;;;;;;23.50;14.63;;;;;;;-0.08;68.43;99687.06;5030397;28;20148;-62
2022/12/14 13:41:25;;;;;;;21.67;13.57;;;;;;;-0.27;69.10;99681.56;5036553;28;20147;-65
2022/12/14 13:44:12;;;;;;;23.73;14.60;;;;;;;-0.38;70.37;99684.47;5023163;28;20114;-61
2022/12/14 13:46:40;;;;;;;21.90;14.02;;;;;;;-0.42;70.00;99688.03;5037593;28;20071;-63
2022/12/14 13:49:17;;;;;;;25.20;15.27;;;;;;;-0.54;70.43;99678.03;5023067;28;20049;-63
2022/12/14 13:51:47;;;;;;;21.90;13.93;;;;;;;-0.61;71.36;99679.97;5026747;28;20079;-63
2022/12/14 13:54:29;;;;;;;22.83;15.30;;;;;;;-0.65;70.54;99677.50;5028077;28;20532;-64
2022/12/14 13:57:08;;;;;;;25.38;15.93;;;;;;;-0.75;71.69;99670.91;5007868;28;20132;-63
2022/12/14 13:59:44;;;;;;;24.48;14.70;;;;;;;-0.97;72.30;99673.25;5020146;28;20051;-63
2022/12/14 14:02:26;;;;;;;27.58;15.88;;;;;;;-1.04;72.24;99675.13;5018346;28;20107;-64
2022/12/14 14:05:19;;;;;;;27.10;15.32;;;;;;;-1.14;72.92;99674.53;5020408;28;20064;-64
2022/12/14 14:08:24;;;;;;;27.77;16.25;;;;;;;-1.20;73.17;99668.69;5025913;28;20046;-62
2022/12/14 14:11:17;;;;;;;26.05;16.35;;;;;;;-1.24;73.61;99672.25;5023442;28;20768;-63
2022/12/14 14:14:43;;;;;;;28.92;16.23;;;;;;;-1.33;73.28;99668.16;5030211;28;20064;-63
2022/12/14 14:17:23;;;;;;;33.97;17.15;;;;;;;-1.50;73.68;99667.72;5023525;28;20049;-63
2022/12/14 14:19:55;;;;;;;27.13;17.15;;;;;;;-1.50;74.33;99665.16;5021240;28;20143;-62
2022/12/14 14:22:26;;;;;;;26.85;16.60;;;;;;;-1.45;74.79;99658.13;5007586;28;20557;-63
2022/12/14 14:25:01;;;;;;;33.60;17.30;;;;;;;-1.48;74.78;99650.50;5024688;28;20729;-61
2022/12/14 14:27:37;;;;;;;27.17;16.45;;;;;;;-1.50;74.53;99645.34;5024700;28;20132;-63
2022/12/14 14:30:27;;;;;;;27.67;17.10;;;;;;;-1.66;74.75;99649.22;5027190;28;20128;-63
2022/12/14 14:32:55;;;;;;;27.88;16.92;;;;;;;-1.76;75.00;99642.56;5025028;28;20144;-64
2022/12/14 14:35:42;;;;;;;27.38;17.02;;;;;;;-1.90;74.28;99630.84;5027327;28;20432;-63
2022/12/14 14:38:26;;;;;;;29.88;17.00;;;;;;;-2.13;74.96;99625.38;5027308;28;20053;-62
2022/12/14 14:41:07;;;;;;;31.15;18.27;;;;;;;-2.21;75.27;99625.56;5031377;28;20072;-64
2022/12/14 14:43:50;;;;;;;31.42;17.88;;;;;;;-2.22;76.38;99628.19;5029374;28;20410;-63
2022/12/14 14:46:18;;;;;;;29.75;17.45;;;;;;;-2.26;76.60;99627.41;5027231;28;20048;-61
2022/12/14 14:48:53;;;;;;;34.42;19.27;;;;;;;-2.34;75.93;99629.31;5027610;28;20056;-64
2022/12/14 14:51:25;;;;;;;35.15;18.17;;;;;;;-2.38;76.63;99625.13;5024503;28;20531;-63
2022/12/14 14:54:17;;;;;;;33.45;18.23;;;;;;;-2.44;76.34;99625.22;5026728;28;20045;-62
2022/12/14 14:57:34;;;;;;;30.77;18.42;;;;;;;-2.45;76.50;99626.13;5043383;28;20140;-62
2022/12/14 15:00:04;;;;;;;37.65;21.40;;;;;;;-2.48;77.14;99618.44;5021457;28;20064;-63
2022/12/14 15:02:36;;;;;;;31.58;18.90;;;;;;;-2.45;77.03;99618.38;5024852;28;20058;-64
2022/12/14 15:05:04;;;;;;;33.83;18.27;;;;;;;-2.41;76.65;99617.44;5046020;28;20549;-64
2022/12/14 15:07:53;;;;;;;36.53;21.45;;;;;;;-2.45;76.62;99616.66;5019384;28;20068;-59
2022/12/14 15:10:29;;;;;;;34.83;19.42;;;;;;;-2.55;76.96;99615.16;5025062;28;20054;-65
2022/12/14 15:13:02;;;;;;;31.10;18.85;;;;;;;-2.63;76.44;99617.91;5027533;28;20405;-62
2022/12/14 15:15:42;;;;;;;34.03;19.70;;;;;;;-2.64;76.85;99616.22;5028959;28;20046;-63
2022/12/14 15:18:19;;;;;;;35.33;19.38;;;;;;;-2.61;76.87;99611.00;5029219;28;20053;-62
2022/12/14 15:21:07;;;;;;;37.55;20.88;;;;;;;-2.61;76.47;99602.44;5021574;28;20127;-64
2022/12/14 15:23:36;;;;;;;35.03;19.10;;;;;;;-2.63;75.91;99611.91;5023616;28;20052;-62
2022/12/14 15:26:11;;;;;;;34.00;19.73;;;;;;;-2.67;76.03;99611.13;5020805;28;20412;-63
2022/12/14 15:28:51;;;;;;;33.72;19.75;;;;;;;-2.70;76.21;99606.06;5022656;28;20049;-63
2022/12/14 15:31:33;;;;;;;34.65;19.63;;;;;;;-2.71;76.01;99612.06;5037139;28;20481;-62
2022/12/14 15:34:01;;;;;;;32.40;18.55;;;;;;;-2.88;75.75;99615.00;5027628;28;20054;-63
2022/12/14 15:36:32;;;;;;;34.50;20.15;;;;;;;-2.97;76.08;99619.47;5032635;28;20057;-62
2022/12/14 15:38:59;;;;;;;33.80;20.10;;;;;;;-3.05;76.50;99609.34;5035702;28;20061;-61
2022/12/14 15:41:28;;;;;;;35.33;19.48;;;;;;;-3.01;76.79;99610.13;5032740;28;20057;-62
2022/12/14 15:43:56;;;;;;;32.25;19.77;;;;;;;-2.93;76.85;99613.38;5025743;28;20050;-63
2022/12/14 15:46:33;;;;;;;34.72;21.42;;;;;;;-2.89;75.90;99615.03;5041447;28;20077;-63
2022/12/14 15:49:03;;;;;;;31.95;19.80;;;;;;;-2.94;76.23;99612.53;5033983;28;20049;-62
2022/12/14 15:51:39;;;;;;;39.33;21.90;;;;;;;-2.95;76.02;99617.72;5020415;28;20141;-61
2022/12/14 15:54:11;;;;;;;;;;;;;;;-2.94;75.75;99612.53;5021685;28;20056;-63
2022/12/14 15:56:44;;;;;;;37.00;21.20;;;;;;;-3.12;75.14;99603.44;5026228;28;20390;-60
2022/12/14 15:59:18;;;;;;;40.70;23.80;;;;;;;-3.22;75.86;99609.66;5030734;28;20061;-62
2022/12/14 16:01:47;;;;;;;37.50;24.65;;;;;;;-3.22;76.07;99613.97;5038954;28;20505;-61
2022/12/14 16:04:22;;;;;;;41.33;22.52;;;;;;;-3.14;75.73;99609.53;5040777;28;20077;-61
2022/12/14 16:07:02;;;;;;;41.25;22.25;;;;;;;-3.13;75.59;99600.91;5041320;28;20365;-62
2022/12/14 16:09:40;;;;;;;44.17;24.38;;;;;;;-3.27;75.38;99602.91;5034228;28;20141;-62
2022/12/14 16:12:34;;;;;;;43.13;23.15;;;;;;;-3.26;75.72;99602.88;5022105;28;20079;-61
2022/12/14 16:15:22;;;;;;;40.10;22.88;;;;;;;-3.29;75.31;99596.94;5029173;28;20058;-60
2022/12/14 16:17:51;;;;;;;41.00;22.73;;;;;;;-3.31;76.11;99602.13;5040619;28;20154;-61
2022/12/14 16:20:33;;;;;;;37.67;22.50;;;;;;;-3.24;75.50;99595.13;5038227;28;20057;-60
2022/12/14 16:23:26;;;;;;;41.05;23.83;;;;;;;-3.26;74.75;99591.75;5043265;28;20135;-61
2022/12/14 16:26:13;;;;;;;40.88;22.30;;;;;;;-3.36;75.46;99599.63;5030884;28;20045;-60
2022/12/14 16:28:40;;;;;;;40.45;23.58;;;;;;;-3.40;75.36;99598.00;5018300;28;20042;-61
2022/12/14 16:31:10;;;;;;;38.05;23.52;;;;;;;-3.40;75.32;99599.72;5021138;28;20609;-62
2022/12/14 16:33:42;;;;;;;40.80;22.80;;;;;;;-3.40;75.17;99595.41;5032547;28;20056;-62
2022/12/14 16:36:21;;;;;;;45.03;23.83;;;;;;;-3.38;74.77;99592.81;5027365;28;20113;-63
2022/12/14 18:43:24;;;;;;;52.60;33.35;;;;;;;-4.62;77.22;99593.13;5007744;28;20122;-62
2022/12/14 20:54:17;;;;;;;63.58;39.67;;;;;;;-5.24;77.85;99642.66;4990018;28;20128;-65
2022/12/14 20:57:34;;;;;;;65.32;41.15;;;;;;;-5.25;77.17;99638.41;4982438;28;20318;-64
2022/12/14 21:04:26;;;;;;;60.72;39.10;;;;;;;-5.23;77.68;99634.94;4995599;28;20037;-64
2022/12/14 21:06:54;;;;;;;58.97;39.60;;;;;;;-5.23;76.90;99631.53;4992079;28;20030;-66
2022/12/14 21:09:21;;;;;;;60.67;39.40;;;;;;;-5.26;77.48;99635.00;4987406;28;20138;-65
2022/12/14 21:14:41;;;;;;;69.90;40.03;;;;;;;-5.23;77.08;99631.53;4996856;28;20061;-66
2022/12/14 21:17:08;;;;;;;59.65;38.58;;;;;;;-5.31;77.78;99634.19;4994491;28;20082;-65
2022/12/14 21:19:36;;;;;;;64.57;39.55;;;;;;;-5.28;77.54;99635.84;4991937;28;20125;-63
2022/12/14 21:22:04;;;;;;;64.97;39.63;;;;;;;-5.29;77.37;99637.59;4973637;28;20054;-65
2022/12/14 21:24:32;;;;;;;60.90;38.78;;;;;;;-5.35;77.82;99646.19;4991938;28;20054;-64
2022/12/14 22:51:13;;;;;;;68.40;43.78;;;;;;;-5.72;77.91;99671.34;4991401;28;20045;-65
2022/12/14 22:58:31;;;;;;;68.20;43.53;;;;;;;-5.74;78.44;99659.38;4982574;28;20156;-62
